Time;durP1;ratioP1;P1;durP2;ratioP2;P2;SDS_P1;SDS_P2;PMS_P1;PMS_P2;Temp;Humidity;BMP_temperature;BMP_pressure;BME280_temperature;BME280_humidity;BME280_pressure;Samples;Min_cycle;Max_cycle;Signal;HPM_P1;HPM_P2
2023/11/25 00:01:51;;;;;;;0.90;0.70;;;;;;;18.12;51.73;95799.13;104442;1273;65916;-37
2023/11/25 00:04:18;;;;;;;0.80;0.80;;;;;;;18.11;51.68;95806.80;104692;1273;72619;-41
2023/11/25 00:06:45;;;;;;;1.70;0.90;;;;;;;18.12;51.68;95811.90;104643;1273;61364;-39
2023/11/25 00:09:15;;;;;;;1.00;0.80;;;;;;;18.11;51.67;95816.30;104691;1268;61326;-40
2023/11/25 00:11:42;;;;;;;1.40;0.80;;;;;;;18.11;51.64;95825.39;104708;1270;74438;-39
2023/11/25 00:14:09;;;;;;;1.10;0.80;;;;;;;18.11;51.67;95843.49;104727;1273;66144;-38
2023/11/25 00:16:35;;;;;;;1.00;0.90;;;;;;;18.10;51.62;95855.64;104674;1267;72527;-37
2023/11/25 00:19:05;;;;;;;1.50;1.00;;;;;;;18.10;51.67;95863.23;104735;1273;61284;-38
2023/11/25 00:21:32;;;;;;;1.00;0.80;;;;;;;18.10;51.65;95861.30;104734;1273;61348;-39
2023/11/25 00:23:59;;;;;;;1.90;0.90;;;;;;;18.10;51.66;95856.57;105158;1270;74710;-39
2023/11/25 00:26:25;;;;;;;1.10;0.80;;;;;;;18.09;51.61;95855.57;104645;1274;65555;-37
2023/11/25 00:28:56;;;;;;;1.00;0.70;;;;;;;18.09;51.68;95852.85;105090;1272;72448;-37
2023/11/25 00:31:23;;;;;;;1.00;0.90;;;;;;;18.09;51.68;95847.05;104577;1272;61290;-39
2023/11/25 00:33:49;;;;;;;0.80;0.80;;;;;;;18.09;51.65;95848.91;104504;1268;61309;-39
2023/11/25 00:36:16;;;;;;;0.80;0.80;;;;;;;18.09;51.57;95857.80;104587;1273;74420;-37
2023/11/25 00:38:42;;;;;;;1.00;0.90;;;;;;;18.09;51.66;95863.93;104733;1273;65944;-37
2023/11/25 00:41:09;;;;;;;1.00;0.80;;;;;;;18.09;51.57;95866.17;104721;1271;71395;-37
2023/11/25 00:43:36;;;;;;;0.90;0.80;;;;;;;18.09;51.60;95866.88;104481;1274;61304;-36
2023/11/25 00:46:04;;;;;;;0.90;0.80;;;;;;;18.09;51.60;95867.27;104495;1267;61270;-37
2023/11/25 00:48:31;;;;;;;0.70;0.70;;;;;;;18.09;51.63;95868.88;104610;1273;74621;-38
2023/11/25 00:50:57;;;;;;;0.80;0.80;;;;;;;18.08;51.61;95870.12;104544;1272;66293;-38
2023/11/25 00:53:24;;;;;;;1.00;0.70;;;;;;;18.08;51.58;95866.71;104386;1274;72509;-38
2023/11/25 00:55:50;;;;;;;0.80;0.80;;;;;;;18.08;51.51;95860.05;104529;1273;61301;-38
2023/11/25 00:58:18;;;;;;;0.60;0.60;;;;;;;18.08;51.60;95860.60;104528;1274;61195;-38
2023/11/25 01:00:45;;;;;;;1.10;1.00;;;;;;;18.07;51.52;95864.54;104778;1273;74342;-37
2023/11/25 01:03:11;;;;;;;1.00;0.90;;;;;;;18.07;51.58;95873.73;104749;1272;65346;-37
2023/11/25 01:05:38;;;;;;;0.90;0.80;;;;;;;18.07;51.64;95876.84;104647;1272;72629;-39
2023/11/25 01:08:05;;;;;;;1.20;0.90;;;;;;;18.07;51.64;95876.23;104487;1273;61269;-38
2023/11/25 01:10:32;;;;;;;1.00;0.80;;;;;;;18.07;51.59;95878.47;104603;1273;61195;-38
2023/11/25 01:12:59;;;;;;;0.80;0.70;;;;;;;18.06;51.67;95877.85;104422;1270;74617;-37
2023/11/25 01:15:25;;;;;;;1.10;0.80;;;;;;;18.06;51.66;95877.02;104632;1274;66562;-39
2023/11/25 01:17:52;;;;;;;0.90;0.80;;;;;;;18.06;51.66;95875.30;104545;1272;72430;-38
2023/11/25 01:20:19;;;;;;;1.20;0.80;;;;;;;18.06;51.63;95874.98;104752;1273;61192;-37
2023/11/25 01:22:47;;;;;;;1.00;0.80;;;;;;;18.06;51.61;95871.74;104806;1270;61344;-37
2023/11/25 01:25:14;;;;;;;0.90;0.80;;;;;;;18.06;51.64;95871.20;104691;1271;74442;-38
2023/11/25 01:27:42;;;;;;;0.70;0.70;;;;;;;18.06;51.63;95869.50;104772;1273;66060;-37
2023/11/25 01:30:10;;;;;;;1.40;0.90;;;;;;;18.06;51.61;95870.89;104801;1271;72663;-37
2023/11/25 01:32:36;;;;;;;1.00;0.80;;;;;;;18.06;51.61;95872.42;104669;1274;61295;-37
2023/11/25 01:35:05;;;;;;;1.00;0.90;;;;;;;18.07;51.58;95869.88;104674;1270;61379;-38
2023/11/25 01:37:31;;;;;;;1.00;0.90;;;;;;;18.07;51.57;95865.93;104501;1268;73425;-37
2023/11/25 01:39:58;;;;;;;1.10;0.90;;;;;;;18.07;51.55;95861.29;104452;1273;65638;-37
2023/11/25 01:42:24;;;;;;;1.00;0.80;;;;;;;18.07;51.49;95859.11;104499;1269;72659;-37
2023/11/25 01:44:51;;;;;;;0.90;0.60;;;;;;;18.08;51.55;95862.30;104669;1273;61260;-38
2023/11/25 01:47:18;;;;;;;1.10;0.80;;;;;;;18.08;51.55;95865.55;104513;1267;61276;-41
2023/11/25 01:49:45;;;;;;;1.10;0.90;;;;;;;18.09;51.52;95868.48;104613;1273;74639;-40
2023/11/25 01:52:11;;;;;;;2.60;0.70;;;;;;;18.08;51.52;95872.52;104669;1270;66050;-41
2023/11/25 01:54:39;;;;;;;0.80;0.80;;;;;;;18.09;51.52;95865.48;104710;1271;72638;-38
2023/11/25 01:57:06;;;;;;;0.90;0.80;;;;;;;18.08;51.51;95859.75;104425;1273;61293;-37
2023/11/25 01:59:32;;;;;;;1.20;0.70;;;;;;;18.09;51.45;95855.02;104557;1273;61296;-37
2023/11/25 02:02:00;;;;;;;1.00;0.90;;;;;;;18.09;51.51;95849.08;104422;1269;75537;-39
2023/11/25 02:04:27;;;;;;;0.60;0.60;;;;;;;18.09;51.48;95854.88;104715;1268;66289;-39
2023/11/25 02:06:54;;;;;;;0.80;0.80;;;;;;;18.08;51.58;95852.17;104640;1270;72604;-39
2023/11/25 02:09:24;;;;;;;0.70;0.70;;;;;;;18.09;51.47;95855.34;104635;1271;61235;-38
2023/11/25 02:11:58;;;;;;;1.00;0.70;;;;;;;18.08;51.49;95853.09;104661;1273;61259;-38
2023/11/25 02:14:27;;;;;;;0.70;0.70;;;;;;;18.09;51.55;95854.95;104556;1267;74453;-39
2023/11/25 02:16:55;;;;;;;0.90;0.60;;;;;;;18.08;51.53;95853.79;104611;1273;67365;-38
2023/11/25 02:19:25;;;;;;;0.80;0.80;;;;;;;18.08;51.50;95853.32;104666;1273;72703;-39
2023/11/25 02:21:52;;;;;;;0.50;0.50;;;;;;;18.08;51.47;95853.64;104619;1272;61260;-38
2023/11/25 02:24:19;;;;;;;0.90;0.70;;;;;;;18.08;51.50;95850.38;104545;1267;61241;-38
2023/11/25 02:26:46;;;;;;;0.80;0.80;;;;;;;18.08;51.48;95858.51;104583;1270;74606;-39
2023/11/25 02:29:13;;;;;;;1.00;0.90;;;;;;;18.08;51.46;95859.90;104724;1274;66256;-39
2023/11/25 02:31:42;;;;;;;0.80;0.70;;;;;;;18.08;51.46;95862.00;104615;1268;72343;-37
2023/11/25 02:34:09;;;;;;;1.80;0.70;;;;;;;18.08;51.38;95860.44;104888;1274;61300;-39
2023/11/25 02:36:38;;;;;;;0.70;0.70;;;;;;;18.08;51.41;95861.44;104753;1270;61369;-39
2023/11/25 02:39:04;;;;;;;1.10;1.00;;;;;;;18.07;51.39;95867.40;104645;1273;74346;-38
2023/11/25 02:41:31;;;;;;;1.70;0.90;;;;;;;18.08;51.33;95869.96;104675;1273;66133;-38
2023/11/25 02:43:58;;;;;;;1.30;0.90;;;;;;;18.08;51.44;95874.45;105124;1268;72631;-38
2023/11/25 02:46:25;;;;;;;1.10;1.00;;;;;;;18.08;51.47;95878.55;104630;1273;61282;-38
2023/11/25 02:48:52;;;;;;;0.90;0.80;;;;;;;18.08;51.36;95881.57;104751;1269;61797;-37
2023/11/25 02:51:20;;;;;;;1.00;0.80;;;;;;;18.07;51.37;95887.29;104551;1272;74448;-38
2023/11/25 02:53:47;;;;;;;1.00;0.90;;;;;;;18.07;51.35;95890.15;104542;1272;66171;-37
2023/11/25 02:56:14;;;;;;;0.80;0.70;;;;;;;18.07;51.32;95888.91;104555;1272;72341;-38
2023/11/25 02:58:42;;;;;;;0.90;0.80;;;;;;;18.07;51.34;95885.05;104562;1272;61210;-38
2023/11/25 03:01:11;;;;;;;0.90;0.90;;;;;;;18.07;51.32;95886.59;104798;1270;61296;-38
2023/11/25 03:03:43;;;;;;;0.70;0.60;;;;;;;18.07;51.29;95892.02;104593;1267;73873;-39
2023/11/25 03:06:10;;;;;;;1.00;0.90;;;;;;;18.07;51.39;95897.89;104521;1273;67059;-37
2023/11/25 03:08:38;;;;;;;0.90;0.80;;;;;;;18.07;51.30;95903.55;104700;1270;72795;-38
2023/11/25 03:11:11;;;;;;;0.90;0.80;;;;;;;18.07;51.27;95905.64;104602;1272;61151;-40
2023/11/25 03:13:40;;;;;;;0.90;0.60;;;;;;;18.07;51.29;95904.40;104579;1269;61439;-39
2023/11/25 03:16:07;;;;;;;1.00;0.90;;;;;;;18.07;51.28;95914.53;104782;1270;74515;-40
2023/11/25 03:18:34;;;;;;;1.00;0.90;;;;;;;18.06;51.37;95918.95;104736;1271;66083;-39
2023/11/25 03:21:00;;;;;;;1.00;0.90;;;;;;;18.06;51.30;95917.25;104613;1271;72464;-41
2023/11/25 03:23:27;;;;;;;0.70;0.70;;;;;;;18.06;51.40;95915.09;104600;1274;61377;-39
2023/11/25 03:25:55;;;;;;;0.70;0.70;;;;;;;18.06;51.30;95910.74;104547;1270;61375;-42
2023/11/25 03:28:22;;;;;;;1.00;0.80;;;;;;;18.06;51.29;95909.36;104551;1268;74456;-40
2023/11/25 03:30:48;;;;;;;1.00;0.80;;;;;;;18.06;51.27;95901.61;104529;1272;66274;-40
2023/11/25 03:33:15;;;;;;;1.30;1.00;;;;;;;18.06;51.32;95900.46;104678;1271;72658;-41
2023/11/25 03:35:42;;;;;;;0.80;0.80;;;;;;;18.06;51.29;95905.58;104757;1273;61183;-39
2023/11/25 03:38:08;;;;;;;0.90;0.90;;;;;;;18.06;51.28;95906.34;104724;1269;61439;-39
2023/11/25 03:40:35;;;;;;;0.80;0.70;;;;;;;18.05;51.37;95903.39;104778;1269;74506;-39
2023/11/25 03:43:02;;;;;;;1.70;0.90;;;;;;;18.05;51.34;95899.44;104753;1268;65259;-38
2023/11/25 03:45:29;;;;;;;0.90;0.90;;;;;;;18.04;51.37;95893.10;104538;1270;72444;-38
2023/11/25 03:47:56;;;;;;;1.20;1.00;;;;;;;18.05;51.36;95895.56;104554;1273;61253;-37
2023/11/25 03:50:22;;;;;;;1.30;1.00;;;;;;;18.05;51.33;95901.52;104562;1272;61270;-37
2023/11/25 03:52:49;;;;;;;0.80;0.80;;;;;;;18.05;51.36;95910.04;104453;1271;74963;-37
2023/11/25 03:55:16;;;;;;;0.80;0.80;;;;;;;18.04;51.39;95908.73;104490;1273;66012;-37
2023/11/25 03:57:43;;;;;;;0.90;0.80;;;;;;;18.04;51.35;95910.67;104383;1274;72599;-37
2023/11/25 04:00:16;;;;;;;0.80;0.70;;;;;;;18.04;51.41;95911.21;104462;1273;61259;-37
2023/11/25 04:02:45;;;;;;;;;;;;;;;18.03;51.33;95911.98;104518;1268;61365;-37
2023/11/25 04:05:13;;;;;;;1.00;0.70;;;;;;;18.04;51.33;95912.06;104443;1268;74975;-37
2023/11/25 04:07:39;;;;;;;1.30;0.90;;;;;;;18.03;51.36;95910.44;104521;1273;64919;-39
2023/11/25 04:10:13;;;;;;;0.90;0.90;;;;;;;18.03;51.26;95904.17;104762;1267;72641;-38
2023/11/25 04:12:42;;;;;;;0.90;0.70;;;;;;;18.03;51.36;95904.09;104685;1273;61255;-37
2023/11/25 04:15:12;;;;;;;1.30;0.90;;;;;;;18.04;51.42;95900.69;104802;1267;61408;-37
2023/11/25 04:17:39;;;;;;;0.80;0.70;;;;;;;18.04;51.39;95897.42;104705;1267;73954;-37
2023/11/25 04:20:28;;;;;;;0.60;0.60;;;;;;;18.03;51.39;95892.17;104579;1272;66241;-37
2023/11/25 04:22:54;;;;;;;1.70;0.90;;;;;;;18.03;51.43;95887.61;104368;1267;72619;-39
2023/11/25 04:25:21;;;;;;;0.80;0.80;;;;;;;18.03;51.43;95887.06;104604;1274;61690;-38
2023/11/25 04:27:51;;;;;;;1.00;0.90;;;;;;;18.03;51.44;95882.20;104766;1268;61347;-38
2023/11/25 04:30:18;;;;;;;2.90;1.00;;;;;;;18.04;51.33;95881.96;104771;1272;75786;-37
2023/11/25 04:32:46;;;;;;;0.80;0.80;;;;;;;18.04;51.36;95885.91;104665;1273;66073;-37
2023/11/25 04:35:16;;;;;;;1.10;0.70;;;;;;;18.04;51.40;95895.42;104653;1267;72703;-38
2023/11/25 04:37:44;;;;;;;1.00;0.80;;;;;;;18.04;51.40;95904.72;104485;1274;61306;-37
2023/11/25 04:40:14;;;;;;;0.90;0.80;;;;;;;18.04;51.38;95915.16;104663;1272;61313;-36
2023/11/25 04:42:41;;;;;;;1.00;0.90;;;;;;;18.04;51.37;95925.08;104673;1273;74513;-37
2023/11/25 04:45:15;;;;;;;1.10;0.90;;;;;;;18.04;51.36;95931.04;104753;1273;66078;-37
2023/11/25 04:47:44;;;;;;;1.00;0.90;;;;;;;18.04;51.37;95940.24;104756;1268;73385;-37
2023/11/25 04:50:14;;;;;;;0.70;0.70;;;;;;;18.04;51.36;95950.45;104791;1268;61292;-37
2023/11/25 04:52:41;;;;;;;0.80;0.80;;;;;;;18.04;51.31;95958.20;104751;1268;61350;-37
2023/11/25 04:55:08;;;;;;;0.90;0.90;;;;;;;18.03;51.33;95961.28;104711;1272;74438;-37
2023/11/25 04:57:36;;;;;;;0.90;0.80;;;;;;;18.04;51.39;95965.16;104622;1273;65088;-37
2023/11/25 05:00:10;;;;;;;1.00;0.80;;;;;;;18.04;51.40;95967.48;104566;1271;72439;-37
2023/11/25 05:02:41;;;;;;;1.40;1.00;;;;;;;18.03;51.32;95963.38;104507;1267;61290;-37
2023/11/25 05:05:08;;;;;;;0.90;0.80;;;;;;;18.04;51.31;95960.14;104596;1273;61364;-37
2023/11/25 05:07:35;;;;;;;0.70;0.70;;;;;;;18.03;51.36;95965.77;104564;1268;74621;-37
2023/11/25 05:10:09;;;;;;;1.50;0.90;;;;;;;18.03;51.38;95960.35;104635;1273;65959;-37
2023/11/25 05:12:36;;;;;;;1.00;0.90;;;;;;;18.03;51.33;95964.15;104545;1269;71380;-38
2023/11/25 05:15:04;;;;;;;1.40;1.10;;;;;;;18.03;51.29;95968.71;104681;1271;61350;-38
2023/11/25 05:17:30;;;;;;;0.90;0.80;;;;;;;18.03;51.39;95974.36;104704;1268;61263;-39
2023/11/25 05:19:57;;;;;;;1.00;0.90;;;;;;;18.03;51.20;95978.85;104774;1270;74198;-38
2023/11/25 05:22:27;;;;;;;1.10;1.00;;;;;;;18.03;51.25;95989.38;104665;1273;66542;-36
2023/11/25 05:24:54;;;;;;;1.10;1.00;;;;;;;18.03;51.28;95986.43;104518;1273;72458;-37
2023/11/25 05:27:22;;;;;;;0.80;0.70;;;;;;;18.03;51.26;95987.59;104750;1268;61269;-37
2023/11/25 05:29:52;;;;;;;1.00;0.90;;;;;;;18.03;51.20;95988.60;104831;1268;61292;-37
2023/11/25 05:32:18;;;;;;;4.20;0.90;;;;;;;18.03;51.23;95989.29;104700;1273;74657;-37
2023/11/25 05:34:45;;;;;;;0.70;0.70;;;;;;;18.02;51.20;95991.77;104534;1272;65696;-37
2023/11/25 05:37:13;;;;;;;1.00;0.90;;;;;;;18.02;51.25;95992.23;104632;1269;72651;-37
2023/11/25 05:39:40;;;;;;;1.20;0.90;;;;;;;18.02;51.29;95996.02;104699;1272;61341;-37
2023/11/25 05:42:07;;;;;;;1.10;1.00;;;;;;;18.03;51.24;96002.14;104558;1268;61250;-38
2023/11/25 05:44:34;;;;;;;1.90;1.00;;;;;;;18.02;51.22;96000.59;104782;1269;74917;-37
2023/11/25 05:47:01;;;;;;;1.70;1.00;;;;;;;18.02;51.22;95997.64;104570;1272;66295;-37
2023/11/25 05:49:28;;;;;;;1.00;0.80;;;;;;;18.02;51.17;96009.10;104626;1268;72758;-38
2023/11/25 05:51:55;;;;;;;1.10;0.80;;;;;;;18.02;51.16;96012.73;104696;1272;61325;-37
2023/11/25 05:54:26;;;;;;;1.30;1.10;;;;;;;18.01;51.14;96014.83;104501;1270;61441;-37
2023/11/25 05:56:52;;;;;;;1.40;0.90;;;;;;;18.01;51.13;96019.25;104542;1272;74647;-37
2023/11/25 05:59:19;;;;;;;1.20;0.90;;;;;;;18.01;51.19;96016.16;104605;1270;66070;-37
2023/11/25 06:01:45;;;;;;;1.00;0.80;;;;;;;18.01;51.18;96018.95;104610;1268;71636;-37
2023/11/25 06:04:12;;;;;;;1.40;0.80;;;;;;;18.01;51.16;96019.87;104673;1273;61277;-37
2023/11/25 06:06:40;;;;;;;1.20;1.00;;;;;;;18.01;51.17;96027.91;104568;1268;61361;-37
2023/11/25 06:09:11;;;;;;;1.00;0.80;;;;;;;18.01;51.18;96026.45;104815;1267;74928;-37
2023/11/25 06:11:38;;;;;;;0.90;0.80;;;;;;;18.01;51.14;96026.59;104572;1268;65559;-37
2023/11/25 06:14:04;;;;;;;1.00;0.90;;;;;;;18.00;51.25;96026.67;104921;1267;73285;-38
2023/11/25 06:16:31;;;;;;;0.80;0.80;;;;;;;18.01;51.21;96024.27;104539;1273;61270;-37
2023/11/25 06:19:01;;;;;;;1.00;0.90;;;;;;;18.01;51.21;96028.45;104496;1268;61271;-37
2023/11/25 06:21:27;;;;;;;1.20;0.90;;;;;;;18.00;51.12;96030.70;104538;1269;73571;-37
2023/11/25 06:23:55;;;;;;;1.10;1.00;;;;;;;18.00;51.16;96030.91;104467;1272;67001;-37
2023/11/25 06:26:21;;;;;;;0.90;0.70;;;;;;;18.00;51.09;96029.77;104507;1268;73573;-37
2023/11/25 06:28:48;;;;;;;1.20;0.90;;;;;;;18.00;51.17;96027.44;104485;1273;61287;-37
2023/11/25 06:31:15;;;;;;;1.00;0.90;;;;;;;18.00;51.22;96019.48;104522;1268;61363;-37
2023/11/25 06:33:42;;;;;;;1.10;0.90;;;;;;;18.00;51.17;96018.00;104528;1270;74520;-38
2023/11/25 06:36:10;;;;;;;0.80;0.70;;;;;;;18.00;51.13;96016.52;104771;1273;66116;-37
2023/11/25 06:38:38;;;;;;;0.90;0.90;;;;;;;18.00;51.17;96019.48;104647;1267;72441;-37
2023/11/25 06:41:07;;;;;;;0.90;0.90;;;;;;;18.00;51.20;96024.96;104601;1272;61707;-38
2023/11/25 06:43:33;;;;;;;1.00;0.90;;;;;;;18.00;51.20;96026.45;104559;1267;61383;-37
2023/11/25 06:46:00;;;;;;;0.90;0.70;;;;;;;18.00;51.22;96021.42;104579;1268;74584;-38
2023/11/25 06:48:27;;;;;;;1.10;0.90;;;;;;;18.00;51.25;96019.64;104570;1273;65846;-37
2023/11/25 06:50:58;;;;;;;1.30;0.90;;;;;;;18.00;51.23;96018.46;104697;1268;72597;-37
2023/11/25 06:53:24;;;;;;;0.80;0.80;;;;;;;18.00;51.27;96022.58;104622;1272;61371;-38
2023/11/25 06:55:51;;;;;;;0.70;0.70;;;;;;;18.00;51.25;96021.34;104503;1268;61247;-39
2023/11/25 06:58:18;;;;;;;1.10;1.00;;;;;;;18.00;51.24;96014.59;104544;1271;75434;-41
2023/11/25 07:00:45;;;;;;;1.10;1.00;;;;;;;18.00;51.19;96010.81;104791;1274;66246;-39
2023/11/25 07:03:12;;;;;;;1.00;0.90;;;;;;;18.01;51.24;96008.73;104557;1268;72514;-37
2023/11/25 07:05:39;;;;;;;1.00;0.90;;;;;;;18.01;51.21;96005.48;104580;1273;61259;-37
2023/11/25 07:08:05;;;;;;;0.90;0.80;;;;;;;18.01;51.19;96006.55;104487;1268;61339;-38
2023/11/25 07:10:34;;;;;;;0.90;0.80;;;;;;;18.02;51.09;96010.50;104594;1273;74482;-37
2023/11/25 07:13:02;;;;;;;0.90;0.90;;;;;;;18.02;51.15;96012.96;104500;1273;66158;-38
2023/11/25 07:15:29;;;;;;;1.10;0.90;;;;;;;18.02;51.23;96013.05;104548;1268;72119;-38
2023/11/25 07:17:57;;;;;;;1.30;1.10;;;;;;;18.03;51.18;96011.98;104441;1273;61294;-37
2023/11/25 07:20:24;;;;;;;1.10;0.90;;;;;;;18.03;51.12;96008.58;104761;1269;61386;-37
2023/11/25 07:22:50;;;;;;;0.90;0.90;;;;;;;18.04;51.16;96012.84;104734;1269;74662;-37
2023/11/25 07:25:18;;;;;;;1.00;0.80;;;;;;;18.04;51.13;96012.91;104576;1272;66068;-37
2023/11/25 07:27:45;;;;;;;2.20;1.00;;;;;;;18.04;51.12;96013.77;104390;1269;72443;-38
2023/11/25 07:30:14;;;;;;;1.00;0.90;;;;;;;18.05;51.08;96011.12;104727;1272;61273;-39
2023/11/25 07:32:41;;;;;;;1.40;1.00;;;;;;;18.04;51.13;96015.14;104721;1267;61280;-38
2023/11/25 07:35:08;;;;;;;1.10;1.00;;;;;;;18.05;51.14;96012.75;104547;1267;75093;-37
2023/11/25 07:37:35;;;;;;;1.20;0.90;;;;;;;18.06;51.08;96002.45;104633;1273;65958;-38
2023/11/25 07:40:15;;;;;;;1.10;1.00;;;;;;;18.06;51.16;95995.34;104760;1268;72573;-38
2023/11/25 07:42:45;;;;;;;1.10;1.00;;;;;;;18.07;51.13;95987.83;104681;1273;61262;-36
2023/11/25 07:45:12;;;;;;;1.30;1.00;;;;;;;18.06;51.12;95983.97;104782;1268;61290;-37
2023/11/25 07:47:40;;;;;;;1.20;0.90;;;;;;;18.07;51.06;95981.56;104596;1272;74416;-37
2023/11/25 07:50:07;;;;;;;1.70;1.10;;;;;;;18.08;51.06;95980.64;104516;1273;65174;-38
2023/11/25 07:52:34;;;;;;;1.20;1.00;;;;;;;18.07;51.05;95976.30;104749;1268;72578;-38
2023/11/25 07:55:01;;;;;;;0.90;0.80;;;;;;;18.09;51.04;95974.23;104509;1273;61283;-38
2023/11/25 07:57:27;;;;;;;1.30;0.90;;;;;;;18.08;50.94;95977.86;104408;1268;61303;-38
2023/11/25 07:59:54;;;;;;;1.30;1.00;;;;;;;18.09;50.95;95978.09;104434;1268;74934;-38
2023/11/25 08:02:20;;;;;;;1.00;0.90;;;;;;;18.09;50.97;95981.73;104429;1273;66219;-38
2023/11/25 08:04:48;;;;;;;1.00;1.00;;;;;;;18.09;50.93;95983.11;104724;1268;72616;-38
2023/11/25 08:07:14;;;;;;;3.20;1.10;;;;;;;18.09;50.88;95982.66;104587;1272;61288;-38
2023/11/25 08:09:42;;;;;;;1.00;0.80;;;;;;;18.09;50.99;95983.27;104548;1268;61377;-38
2023/11/25 08:12:09;;;;;;;1.10;0.90;;;;;;;18.10;50.97;95983.27;104448;1269;74432;-39
2023/11/25 08:14:35;;;;;;;3.00;0.80;;;;;;;18.10;50.93;95985.90;104561;1272;65944;-39
2023/11/25 08:17:02;;;;;;;0.90;0.90;;;;;;;18.10;50.96;95994.57;104469;1268;72549;-38
2023/11/25 08:19:29;;;;;;;0.80;0.70;;;;;;;18.10;50.94;95996.89;104706;1273;61291;-38
2023/11/25 08:21:56;;;;;;;1.10;1.00;;;;;;;18.10;50.93;96001.61;104640;1268;61726;-39
2023/11/25 08:24:23;;;;;;;2.10;1.10;;;;;;;18.11;50.85;96008.51;104627;1268;74451;-39
2023/11/25 08:26:50;;;;;;;1.30;1.00;;;;;;;18.11;50.88;96015.02;104452;1273;66236;-39
2023/11/25 08:29:18;;;;;;;1.20;1.00;;;;;;;18.11;50.88;96025.84;104474;1268;71477;-38
2023/11/25 08:31:45;;;;;;;1.10;1.00;;;;;;;18.11;50.88;96032.19;104672;1272;61476;-37
2023/11/25 08:34:12;;;;;;;1.50;0.70;;;;;;;18.11;50.85;96035.44;104583;1268;61249;-36
2023/11/25 08:36:47;;;;;;;1.70;1.10;;;;;;;18.11;50.83;96039.16;104456;1270;74323;-37
2023/11/25 08:39:14;;;;;;;0.80;0.80;;;;;;;18.11;50.78;96044.04;104698;1273;66078;-40
2023/11/25 08:41:43;;;;;;;1.00;0.80;;;;;;;18.10;50.79;96045.27;104452;1268;72427;-40
2023/11/25 08:44:12;;;;;;;1.40;1.10;;;;;;;18.11;50.86;96051.30;104563;1273;61304;-38
2023/11/25 08:46:40;;;;;;;2.10;1.00;;;;;;;18.11;50.80;96050.61;104706;1268;61208;-38
2023/11/25 08:49:10;;;;;;;0.90;0.90;;;;;;;18.10;50.79;96054.64;104814;1269;74501;-37
2023/11/25 08:51:41;;;;;;;1.20;1.00;;;;;;;18.11;50.78;96053.16;104546;1268;66200;-37
2023/11/25 08:54:08;;;;;;;1.50;0.90;;;;;;;18.11;50.80;96053.71;104704;1268;72444;-37
2023/11/25 08:56:34;;;;;;;0.90;0.90;;;;;;;18.12;50.74;96059.90;104693;1274;61260;-37
2023/11/25 08:59:03;;;;;;;1.20;1.10;;;;;;;18.11;50.84;96059.05;104676;1267;61272;-38
2023/11/25 09:01:43;;;;;;;1.50;1.10;;;;;;;18.11;50.79;96055.64;104544;1273;74617;-37
2023/11/25 09:04:19;;;;;;;0.90;0.90;;;;;;;18.11;50.75;96059.13;104757;1273;66127;-37
2023/11/25 09:06:46;;;;;;;1.00;0.90;;;;;;;18.11;50.77;96055.33;104569;1267;72355;-38
2023/11/25 09:09:19;;;;;;;1.70;1.00;;;;;;;18.12;50.78;96056.25;104654;1272;61198;-38
2023/11/25 09:11:48;;;;;;;1.30;1.00;;;;;;;18.12;50.80;96051.99;104625;1267;61338;-38
2023/11/25 09:14:18;;;;;;;1.10;0.90;;;;;;;18.12;50.76;96049.98;104664;1267;74171;-38
2023/11/25 09:16:45;;;;;;;0.90;0.80;;;;;;;18.13;50.80;96047.42;104706;1272;66006;-38
2023/11/25 09:19:13;;;;;;;0.80;0.80;;;;;;;18.13;50.69;96049.98;104796;1268;72698;-38
2023/11/25 09:21:39;;;;;;;1.10;0.90;;;;;;;18.13;50.67;96043.11;104516;1274;61256;-36
2023/11/25 09:24:06;;;;;;;1.10;1.00;;;;;;;18.14;50.68;96041.79;104722;1268;61383;-38
2023/11/25 09:26:33;;;;;;;0.90;0.90;;;;;;;18.14;50.65;96034.43;104661;1269;74595;-38
2023/11/25 09:29:00;;;;;;;1.30;1.00;;;;;;;18.14;50.58;96027.70;105057;1272;66587;-37
2023/11/25 09:31:27;;;;;;;1.10;0.90;;;;;;;18.14;50.62;96025.83;104676;1268;134594;-37
2023/11/25 09:33:55;;;;;;;1.50;1.00;;;;;;;18.15;50.57;96023.91;105296;1268;61945;-38
2023/11/25 09:36:24;;;;;;;1.60;1.10;;;;;;;18.15;50.68;96026.39;104550;1268;61278;-38
2023/11/25 09:38:52;;;;;;;1.00;1.00;;;;;;;18.16;50.63;96022.98;104419;1268;74598;-38
2023/11/25 09:41:18;;;;;;;1.00;0.90;;;;;;;18.16;50.67;96023.84;104499;1268;64940;-37
2023/11/25 09:43:45;;;;;;;1.00;0.90;;;;;;;18.16;50.66;96030.19;104477;1268;72492;-38
2023/11/25 09:46:13;;;;;;;0.80;0.80;;;;;;;18.16;50.63;96036.85;104515;1274;61210;-37
2023/11/25 09:48:40;;;;;;;1.00;0.90;;;;;;;18.16;50.57;96039.02;104556;1268;61389;-37
2023/11/25 09:51:08;;;;;;;0.90;0.80;;;;;;;18.16;50.60;96050.39;104488;1268;74678;-39
2023/11/25 09:53:36;;;;;;;1.10;0.90;;;;;;;18.17;50.63;96052.31;104514;1272;65088;-37
2023/11/25 09:56:05;;;;;;;1.20;1.00;;;;;;;18.17;50.48;96054.33;104618;1268;72749;-38
2023/11/25 09:58:34;;;;;;;1.20;1.10;;;;;;;18.18;50.54;96060.23;104702;1268;61287;-38
2023/11/25 10:01:05;;;;;;;1.00;0.90;;;;;;;18.18;50.55;96058.91;104591;1268;61362;-38
2023/11/25 10:03:33;;;;;;;1.50;1.00;;;;;;;18.18;50.55;96059.37;104494;1268;73289;-38
2023/11/25 10:06:01;;;;;;;1.50;0.90;;;;;;;18.18;50.53;96066.64;104520;1272;66229;-38
2023/11/25 10:08:30;;;;;;;1.50;0.90;;;;;;;18.18;50.55;96066.89;104652;1268;72646;-38
2023/11/25 10:11:06;;;;;;;1.00;0.90;;;;;;;18.18;50.50;96063.47;104679;1272;61275;-39
2023/11/25 10:13:39;;;;;;;1.20;1.10;;;;;;;18.18;50.52;96065.79;104603;1268;61325;-38
2023/11/25 10:16:07;;;;;;;1.20;0.90;;;;;;;18.18;50.47;96068.50;104764;1272;74366;-37
2023/11/25 10:18:37;;;;;;;1.30;1.10;;;;;;;18.18;50.46;96067.18;104672;1274;65600;-37
2023/11/25 10:21:06;;;;;;;1.60;1.10;;;;;;;18.18;50.36;96058.75;104618;1268;72491;-39
2023/11/25 10:23:34;;;;;;;1.10;0.90;;;;;;;18.18;50.48;96055.27;104599;1269;61422;-39
2023/11/25 10:26:05;;;;;;;1.10;0.90;;;;;;;18.18;50.52;96052.94;104622;1268;61282;-37
2023/11/25 10:28:36;;;;;;;1.10;1.00;;;;;;;18.18;50.50;96053.88;104663;1269;74497;-38
2023/11/25 10:31:05;;;;;;;1.90;1.00;;;;;;;18.18;50.54;96054.58;104636;1268;66330;-37
2023/11/25 10:33:31;;;;;;;1.20;0.90;;;;;;;18.17;50.51;96046.44;104555;1268;72249;-37
2023/11/25 10:35:58;;;;;;;1.40;1.00;;;;;;;18.17;50.54;96046.36;104656;1272;61281;-38
2023/11/25 10:38:29;;;;;;;1.20;1.10;;;;;;;18.17;50.52;96039.77;104419;1268;61300;-40
2023/11/25 10:41:03;;;;;;;1.10;0.90;;;;;;;18.17;50.53;96034.27;104717;1269;74722;-38
2023/11/25 10:43:30;;;;;;;1.80;0.90;;;;;;;18.16;50.43;96040.71;104512;1268;66484;-40
2023/11/25 10:46:08;;;;;;;1.20;1.00;;;;;;;18.16;50.56;96040.63;104576;1268;72540;-39
2023/11/25 10:48:38;;;;;;;1.20;1.10;;;;;;;18.16;50.54;96039.48;104590;1273;61617;-39
2023/11/25 10:51:05;;;;;;;1.80;1.20;;;;;;;18.16;50.53;96037.23;104647;1270;61196;-40
2023/11/25 10:53:35;;;;;;;1.20;1.00;;;;;;;18.16;50.53;96035.84;104508;1268;74499;-38
2023/11/25 10:56:03;;;;;;;1.70;0.90;;;;;;;18.16;50.52;96034.21;104604;1274;65121;-37
2023/11/25 10:58:31;;;;;;;1.00;0.90;;;;;;;18.16;50.51;96033.13;104582;1274;72771;-39
2023/11/25 11:00:58;;;;;;;1.10;1.00;;;;;;;18.16;50.60;96035.14;104547;1274;61291;-37
2023/11/25 11:03:30;;;;;;;1.20;1.10;;;;;;;18.16;50.55;96042.65;104651;1269;61393;-39
2023/11/25 11:05:59;;;;;;;1.00;0.90;;;;;;;18.16;50.53;96046.59;104703;1273;74420;-39
2023/11/25 11:08:31;;;;;;;1.20;1.00;;;;;;;18.17;50.57;96046.74;104656;1273;65008;-38
2023/11/25 11:11:20;;;;;;;0.90;0.90;;;;;;;18.16;50.53;96040.17;104690;1268;72722;-40
2023/11/25 11:14:06;;;;;;;1.10;0.90;;;;;;;18.17;50.47;96038.77;104620;1273;61259;-39
2023/11/25 11:16:39;;;;;;;1.20;1.00;;;;;;;18.17;50.46;96040.63;104588;1268;61266;-38
2023/11/25 11:19:09;;;;;;;0.80;0.80;;;;;;;18.17;50.51;96041.87;104943;1272;74381;-39
2023/11/25 11:21:37;;;;;;;1.20;0.90;;;;;;;18.18;50.49;96035.67;104628;1272;66134;-38
2023/11/25 11:24:10;;;;;;;1.10;0.90;;;;;;;18.18;50.47;96031.27;104956;1269;72603;-41
2023/11/25 11:26:53;;;;;;;1.20;1.00;;;;;;;18.19;50.47;96028.64;104645;1274;61316;-38
2023/11/25 11:29:36;;;;;;;1.60;1.00;;;;;;;18.20;50.40;96032.73;104630;1268;61272;-39